Burleson, TX (76028)

11:14 PM CDT on September 04, 2015 (GMT -0500)
Oak Valley Weather | | Change Station
CLOSE
Current Station
Personal Weather Station
Location: Burleson, TX
Elevation: 720 ft
Nearby Weather Stations

Elev 720 ft 32.53 °N, 97.29 °W | Updated 1 minute ago

Clear
Clear
83.9 °F
Feels Like 89 °F
N
1.0
Wind Variable Wind from SW
Gusts 5.0 mph

Today
High -- | Low -- °F
--% Chance of Precip.
Yesterday
High -- | Low -- °F
Precip. -- in
7:05 AM 7:50 PM
Waning Gibbous, 53% visible
Pressure 29.95 in
Visibility 10.0 miles
Clouds Clear
Heat Index 89 °F
Dew Point 71 °F
Humidity 65%
Rainfall Not available.
Snow Depth Not available.
UV 0 out of 12
Pollen 10.20 out of 12
Air Quality Not available.
Flu Activity Not available.
METAR KFWS 050355Z AUTO 13003KT 10SM CLR 28/20 A2995 RMK AO2 T02800199
Pressure 29.95 in
Visibility 10.0 miles
Clouds Clear
Heat Index 89 °F
Dew Point 71 °F
Humidity 65%
Rainfall Not available.
Snow Depth Not available.
UV 0 out of 12
Pollen 10.20 out of 12
Air Quality Not available.
Flu Activity Not available.
METAR KFWS 050355Z AUTO 13003KT 10SM CLR 28/20 A2995 RMK AO2 T02800199

10-Day Weather Forecast

×

Almanac

Astronomy

Sep. 04, 2015 Rise Set
Actual Time
Civil Twilight
Nautical Twilight
Astronomical Twilight
Moon
Length of Visible Light
Length of Day
Tomorrow will be .
, % of the Moon is Illuminated

Today's Extremes

State Highs State Lows

Community

WunderPhotos

Upload Photos

1,852,419 photos uploaded!

WunderBlogs® & News

Nearby

Air Quality

  Air Quality AQ Index Pollutant
Not available.

Snow Depth

Station Depth Elevation

Earthquake Activity

City Distance Mag. Time & Date
Minimum magnitude displayed is 2.5.

Coastal Water Temperatures

Place Temperature

Stations

Nearby Weather Stations

Station Location Temp. Windchill Dew Point Humidity Wind Precip. Elev Updated Type